createdAt,value
2023-02-09T00:01:24.383Z,14.48
2023-02-09T00:03:53.314Z,12.15
2023-02-09T00:06:23.309Z,11.57
2023-02-09T00:08:52.057Z,16.52
2023-02-09T00:11:22.281Z,12.48
2023-02-09T00:13:49.363Z,11.18
2023-02-09T00:16:18.669Z,13.77
2023-02-09T00:18:46.806Z,13.80
2023-02-09T00:21:14.888Z,13.02
2023-02-09T00:23:42.955Z,14.90
2023-02-09T00:26:12.793Z,13.43
2023-02-09T00:28:40.893Z,17.60
2023-02-09T00:31:10.274Z,16.38
2023-02-09T00:33:39.845Z,14.93
2023-02-09T00:36:09.472Z,13.40
2023-02-09T00:38:38.550Z,16.20
2023-02-09T00:41:07.001Z,18.60
2023-02-09T00:43:35.659Z,17.33
2023-02-09T00:46:04.017Z,18.60
2023-02-09T00:48:32.196Z,16.08
2023-02-09T00:51:01.626Z,18.10
2023-02-09T00:53:29.796Z,15.50
2023-02-09T00:55:59.910Z,18.55
2023-02-09T00:58:28.147Z,17.13
2023-02-09T01:00:56.299Z,21.47
2023-02-09T01:03:24.472Z,20.38
2023-02-09T01:05:53.337Z,13.77
2023-02-09T01:08:22.606Z,18.88
2023-02-09T01:10:50.679Z,22.77
2023-02-09T01:13:18.718Z,21.20
2023-02-09T01:15:46.600Z,18.08
2023-02-09T01:18:14.967Z,16.13
2023-02-09T01:20:43.794Z,17.63
2023-02-09T01:23:11.871Z,21.77
2023-02-09T01:25:41.254Z,18.67
2023-02-09T01:28:09.485Z,18.25
2023-02-09T10:26:22.825Z,12.60
2023-02-09T10:28:53.159Z,13.07
2023-02-09T10:31:26.172Z,14.88
2023-02-09T10:33:59.482Z,12.07
2023-02-09T10:36:30.530Z,13.27
2023-02-09T10:39:14.780Z,12.50
2023-02-09T10:41:47.474Z,12.17
2023-02-09T10:44:22.759Z,10.83
2023-02-09T10:47:18.040Z,10.80
2023-02-09T10:50:03.204Z,12.80
2023-02-09T10:52:37.562Z,12.30
2023-02-09T10:55:08.642Z,15.67
2023-02-09T10:57:39.662Z,11.70
2023-02-09T11:00:30.291Z,9.87
2023-02-09T11:03:01.992Z,13.50
2023-02-09T11:05:36.060Z,10.50
2023-02-09T11:08:18.694Z,9.30
2023-02-09T11:10:57.908Z,13.37
2023-02-09T11:13:30.013Z,8.50
2023-02-09T11:16:15.000Z,25.03
2023-02-09T11:18:46.729Z,8.90
2023-02-09T11:21:18.959Z,10.50
2023-02-09T11:23:54.200Z,11.03
2023-02-09T11:26:34.284Z,10.73
2023-02-09T11:29:10.844Z,9.80
2023-02-09T11:32:14.137Z,14.00
2023-02-09T11:35:01.755Z,8.63
2023-02-09T11:37:42.582Z,12.97
2023-02-09T11:40:28.930Z,12.27
2023-02-09T11:43:07.626Z,11.90
2023-02-09T11:45:44.478Z,14.43
2023-02-09T11:48:15.367Z,11.60
2023-02-09T11:50:53.842Z,14.13
2023-02-09T11:53:39.622Z,10.53
2023-02-09T11:56:09.831Z,9.60
2023-02-09T11:58:47.243Z,16.03
2023-02-09T12:01:33.629Z,12.95
2023-02-09T12:04:10.987Z,11.90
2023-02-09T12:06:42.362Z,12.90
2023-02-09T12:09:28.618Z,14.83
2023-02-09T12:12:09.217Z,16.67
2023-02-09T12:14:58.224Z,12.55
2023-02-09T12:17:35.865Z,14.33
2023-02-09T12:20:05.056Z,12.80
2023-02-09T12:22:53.253Z,13.03
2023-02-09T12:25:46.077Z,14.17
2023-02-09T12:28:44.233Z,15.50
2023-02-09T12:31:22.114Z,14.45
2023-02-09T12:34:28.662Z,14.97
2023-02-09T12:37:18.154Z,16.30
2023-02-09T12:40:23.945Z,14.13
2023-02-09T12:43:29.256Z,14.77
2023-02-09T12:46:47.405Z,16.85
2023-02-09T12:49:22.402Z,16.55
2023-02-09T12:52:17.574Z,12.27
2023-02-09T12:54:51.459Z,13.75
2023-02-09T12:57:53.239Z,16.48
2023-02-09T13:00:32.792Z,17.40
2023-02-09T13:03:20.432Z,17.93
2023-02-09T13:05:51.237Z,14.35
2023-02-09T13:08:46.171Z,16.52
2023-02-09T13:11:27.095Z,16.90
2023-02-09T13:13:57.875Z,15.17
2023-02-09T13:17:17.120Z,16.30
2023-02-09T13:20:15.832Z,12.20
2023-02-09T13:23:14.326Z,14.20
2023-02-09T13:25:44.175Z,17.50
2023-02-09T13:28:18.247Z,18.23
2023-02-09T13:30:47.498Z,16.87
2023-02-09T13:33:43.589Z,16.27
2023-02-09T13:36:25.302Z,19.77
2023-02-09T13:38:55.130Z,15.20
2023-02-09T13:41:31.064Z,16.87
2023-02-09T13:43:59.299Z,15.53
2023-02-09T13:46:31.506Z,15.87
2023-02-09T13:49:12.227Z,12.60
2023-02-09T13:51:40.313Z,15.57
2023-02-09T13:54:19.587Z,16.45
2023-02-09T13:56:48.068Z,13.75
2023-02-09T13:59:18.009Z,13.03
2023-02-09T14:01:47.174Z,14.80
2023-02-09T14:04:19.972Z,14.40
2023-02-09T14:06:53.291Z,17.48
2023-02-09T14:09:26.638Z,13.55
2023-02-09T14:11:56.366Z,13.43
2023-02-09T14:14:27.850Z,15.20
2023-02-09T14:17:24.278Z,13.80
2023-02-09T14:19:54.247Z,16.03
2023-02-09T14:22:31.541Z,18.33
2023-02-09T14:25:01.131Z,15.07
2023-02-09T14:27:33.004Z,22.10
2023-02-09T14:30:01.292Z,13.33
2023-02-09T14:32:35.437Z,16.17
2023-02-09T14:35:17.526Z,18.03
2023-02-09T14:37:45.944Z,16.30
2023-02-09T14:40:23.874Z,14.80
2023-02-09T14:43:00.560Z,15.60
2023-02-09T14:45:32.350Z,23.30
2023-02-09T14:48:00.347Z,15.20
2023-02-09T14:50:28.502Z,16.00
2023-02-09T14:53:06.934Z,14.45
2023-02-09T14:55:40.571Z,17.10
2023-02-09T14:58:13.396Z,15.87
2023-02-09T15:00:41.766Z,16.50
2023-02-09T15:03:09.879Z,17.17
2023-02-09T15:05:37.908Z,19.93
2023-02-09T15:08:08.898Z,15.50
2023-02-09T15:10:43.678Z,20.07
2023-02-09T15:13:12.783Z,21.93
2023-02-09T15:15:40.856Z,17.97
2023-02-09T15:18:13.936Z,17.97
2023-02-09T15:20:42.009Z,17.30
2023-02-09T15:23:10.671Z,17.43
2023-02-09T15:25:41.925Z,14.87
2023-02-09T15:28:16.971Z,16.20
2023-02-09T15:30:45.570Z,16.53
2023-02-09T15:33:13.635Z,19.15
2023-02-09T15:35:42.127Z,17.50
2023-02-09T15:38:12.032Z,16.67
2023-02-09T15:41:01.109Z,19.83
2023-02-09T15:43:47.846Z,21.13
2023-02-09T15:46:35.237Z,16.80
2023-02-09T15:49:03.405Z,16.50
2023-02-09T15:51:34.235Z,14.98
2023-02-09T15:54:04.829Z,17.50
2023-02-09T15:56:36.618Z,14.90
2023-02-09T15:59:05.871Z,18.02
2023-02-09T16:01:34.930Z,17.97
2023-02-09T16:04:13.496Z,20.67
2023-02-09T16:06:45.314Z,21.40
2023-02-09T16:09:19.058Z,21.00
2023-02-09T16:11:48.514Z,19.93
2023-02-09T16:14:20.545Z,21.10
2023-02-09T16:16:49.294Z,20.10
2023-02-09T16:19:17.848Z,24.57
2023-02-09T16:21:49.843Z,17.50
2023-02-09T16:24:23.024Z,21.70
2023-02-09T16:26:52.619Z,17.97
2023-02-09T16:29:20.618Z,20.53
2023-02-09T16:31:49.314Z,19.08
2023-02-09T16:34:17.458Z,17.20
2023-02-09T16:36:48.237Z,19.07
2023-02-09T16:39:19.052Z,17.13
2023-02-09T16:41:48.208Z,18.30
2023-02-09T16:44:20.775Z,23.40
2023-02-09T16:46:50.478Z,19.20
2023-02-09T16:49:31.073Z,21.30
2023-02-09T16:52:01.918Z,27.98
2023-02-09T16:54:31.354Z,23.40
2023-02-09T16:56:59.435Z,26.10
2023-02-09T16:59:29.201Z,22.00
2023-02-09T17:01:59.765Z,19.60
2023-02-09T17:04:28.112Z,25.40
2023-02-09T17:06:56.363Z,20.52
2023-02-09T17:09:24.449Z,25.25
2023-02-09T17:11:52.357Z,28.30
2023-02-09T17:14:20.274Z,23.25
2023-02-09T17:16:50.149Z,24.03
2023-02-09T17:19:19.149Z,26.10
2023-02-09T17:21:47.110Z,25.53
2023-02-09T17:24:17.157Z,25.58
2023-02-09T17:26:45.834Z,30.13
2023-02-09T17:29:13.785Z,25.87
2023-02-09T17:31:53.298Z,26.15
2023-02-09T17:34:27.001Z,29.98
2023-02-09T17:36:55.258Z,28.97
2023-02-09T17:39:23.121Z,26.33
2023-02-09T17:41:51.162Z,25.43
2023-02-09T17:44:34.848Z,30.37
2023-02-09T17:47:07.583Z,31.15
2023-02-09T17:49:37.076Z,31.60
2023-02-09T17:52:05.486Z,36.23
2023-02-09T17:54:33.909Z,44.30
2023-02-09T17:57:01.945Z,39.70
2023-02-09T17:59:29.907Z,29.20
2023-02-09T18:01:59.227Z,30.30
2023-02-09T18:04:28.637Z,36.20
2023-02-09T18:06:58.438Z,28.10
2023-02-09T18:09:26.442Z,24.57
2023-02-09T18:12:02.167Z,30.13
2023-02-09T18:14:32.024Z,31.23
2023-02-09T18:17:00.412Z,30.00
2023-02-09T18:19:28.694Z,26.83
2023-02-09T18:21:59.786Z,30.63
2023-02-09T18:24:29.827Z,29.73
2023-02-09T18:26:58.510Z,33.50
2023-02-09T18:29:29.637Z,29.42
2023-02-09T18:31:57.907Z,36.23
2023-02-09T18:34:26.413Z,30.67
2023-02-09T18:36:54.468Z,34.43
2023-02-09T18:39:23.938Z,34.30
2023-02-09T18:41:54.477Z,28.63
2023-02-09T18:44:24.618Z,34.35
2023-02-09T18:46:52.575Z,33.53
2023-02-09T18:49:20.875Z,39.50
2023-02-09T18:51:48.806Z,35.63
2023-02-09T18:54:16.840Z,36.23
2023-02-09T18:56:46.316Z,36.60
2023-02-09T18:59:14.802Z,36.60
2023-02-09T19:01:42.799Z,37.70
2023-02-09T19:04:10.806Z,36.97
2023-02-09T19:06:39.610Z,37.53
2023-02-09T19:09:07.632Z,43.77
2023-02-09T19:11:35.694Z,38.08
2023-02-09T19:14:22.995Z,39.97
2023-02-09T19:16:50.961Z,45.40
2023-02-09T19:19:19.216Z,47.93
2023-02-09T19:21:52.123Z,45.57
2023-02-09T19:24:20.301Z,42.90
2023-02-09T19:26:48.520Z,44.47
2023-02-09T19:29:18.016Z,48.87
2023-02-09T19:31:46.667Z,40.00
2023-02-09T19:34:14.545Z,54.07
2023-02-09T19:36:42.519Z,40.97
2023-02-09T19:39:11.952Z,44.10
2023-02-09T19:41:39.960Z,39.33
2023-02-09T19:44:08.140Z,40.90
2023-02-09T19:46:37.540Z,47.20
2023-02-09T19:49:05.498Z,36.33
2023-02-09T19:51:33.708Z,40.60
2023-02-09T19:54:01.729Z,50.63
2023-02-09T19:56:29.564Z,39.80
2023-02-09T19:58:57.809Z,43.05
2023-02-09T20:01:27.043Z,42.27
2023-02-09T20:03:57.070Z,42.87
2023-02-09T20:06:25.523Z,47.13
2023-02-09T20:08:53.508Z,52.87
2023-02-09T20:11:22.634Z,49.13
2023-02-09T20:13:52.652Z,43.93
2023-02-09T20:16:24.436Z,45.67
2023-02-09T20:18:53.125Z,43.73
2023-02-09T20:21:24.193Z,44.27
2023-02-09T20:23:55.518Z,47.47
2023-02-09T20:26:26.898Z,44.90
2023-02-09T20:28:55.345Z,57.20
2023-02-09T20:31:25.000Z,47.93
2023-02-09T20:33:53.689Z,49.40
2023-02-09T20:36:24.628Z,54.07
2023-02-09T20:38:53.795Z,49.47
2023-02-09T20:41:21.982Z,48.90
2023-02-09T20:44:07.686Z,49.30
2023-02-09T20:46:53.964Z,47.70
2023-02-09T20:49:22.252Z,52.50
2023-02-09T20:51:51.586Z,42.30
2023-02-09T20:54:19.890Z,44.10
2023-02-09T20:56:47.858Z,45.23
2023-02-09T20:59:16.549Z,47.17
2023-02-09T21:01:45.925Z,44.13
2023-02-09T21:04:13.985Z,45.80
2023-02-09T21:06:41.956Z,48.83
2023-02-09T21:09:15.435Z,46.00
2023-02-09T21:11:44.022Z,58.47
2023-02-09T21:14:21.875Z,54.63
2023-02-09T21:17:00.379Z,44.53
2023-02-09T21:19:28.349Z,47.60
2023-02-09T21:21:56.390Z,50.57
2023-02-09T21:24:25.850Z,46.20
2023-02-09T21:26:53.891Z,46.07
2023-02-09T21:29:21.919Z,49.63
2023-02-09T21:31:51.386Z,42.63
2023-02-09T21:34:19.358Z,43.30
2023-02-09T21:36:47.271Z,43.53
2023-02-09T21:39:15.340Z,47.07
2023-02-09T21:42:02.350Z,43.33
2023-02-09T21:44:31.174Z,47.90
2023-02-09T21:47:00.545Z,45.10
2023-02-09T21:49:31.653Z,48.07
2023-02-09T21:52:00.095Z,45.37
2023-02-09T21:54:33.142Z,49.50
2023-02-09T21:57:03.366Z,39.00
2023-02-09T21:59:31.398Z,38.00
2023-02-09T22:01:59.337Z,45.23
2023-02-09T22:04:27.516Z,47.40
2023-02-09T22:06:55.564Z,43.90
2023-02-09T22:09:25.014Z,46.10
2023-02-09T22:11:53.152Z,42.40
2023-02-09T22:14:22.452Z,45.60
2023-02-09T22:16:50.665Z,42.60
2023-02-09T22:19:18.570Z,44.70
2023-02-09T22:21:46.509Z,47.53
2023-02-09T22:24:16.625Z,43.67
2023-02-09T22:26:44.892Z,45.70
2023-02-09T22:29:14.538Z,40.97
2023-02-09T22:31:44.366Z,41.93
2023-02-09T22:34:12.674Z,43.43
2023-02-09T22:36:40.982Z,48.67
2023-02-09T22:39:09.363Z,41.80
2023-02-09T22:41:37.650Z,38.07
2023-02-09T22:44:08.331Z,39.30
2023-02-09T22:46:38.291Z,39.07
2023-02-09T22:49:09.428Z,48.03
2023-02-09T22:51:37.970Z,35.57
2023-02-09T22:56:48.063Z,39.80
2023-02-09T22:59:16.801Z,36.30
2023-02-09T23:01:45.540Z,41.07
2023-02-09T23:04:13.895Z,40.20
2023-02-09T23:06:41.954Z,32.70
2023-02-09T23:09:09.871Z,35.80
2023-02-09T23:11:38.007Z,34.60
2023-02-09T23:14:10.198Z,40.40
2023-02-09T23:16:40.713Z,28.30
2023-02-09T23:19:12.824Z,28.27
2023-02-09T23:21:42.944Z,25.90
2023-02-09T23:24:11.586Z,26.43
2023-02-09T23:26:39.861Z,29.27
2023-02-09T23:29:11.633Z,24.23
2023-02-09T23:31:40.283Z,27.63
2023-02-09T23:34:08.841Z,21.63
2023-02-09T23:36:36.745Z,26.20
2023-02-09T23:39:07.190Z,21.40
2023-02-09T23:41:36.330Z,26.27
2023-02-09T23:44:05.030Z,25.20
2023-02-09T23:46:34.447Z,21.93
2023-02-09T23:49:02.552Z,20.87
2023-02-09T23:51:31.946Z,19.20
2023-02-09T23:54:01.598Z,18.70
2023-02-09T23:56:31.914Z,20.67
2023-02-09T23:59:00.098Z,25.07
